createdAt,value
2018-06-14T00:01:05.483Z,15.89
2018-06-14T00:03:33.828Z,15.86
2018-06-14T00:06:02.128Z,15.99
2018-06-14T00:08:30.489Z,15.81
2018-06-14T00:10:58.721Z,15.96
2018-06-14T00:13:26.977Z,15.91
2018-06-14T00:15:55.293Z,15.82
2018-06-14T00:18:23.741Z,16.03
2018-06-14T00:20:52.221Z,15.65
2018-06-14T00:23:20.667Z,15.89
2018-06-14T00:25:49.001Z,15.71
2018-06-14T00:28:17.326Z,15.94
2018-06-14T00:30:45.570Z,15.99
2018-06-14T00:33:13.843Z,15.63
2018-06-14T00:35:42.060Z,15.93
2018-06-14T00:38:10.373Z,15.97
2018-06-14T00:40:38.689Z,15.96
2018-06-14T00:43:07.014Z,16.03
2018-06-14T00:45:35.386Z,15.80
2018-06-14T00:48:03.679Z,15.95
2018-06-14T00:50:32.014Z,15.62
2018-06-14T00:53:00.343Z,15.98
2018-06-14T00:55:28.609Z,15.90
2018-06-14T00:57:56.851Z,15.66
2018-06-14T01:00:25.121Z,15.62
2018-06-14T01:02:53.483Z,15.74
2018-06-14T01:05:22.184Z,15.83
2018-06-14T01:07:50.471Z,15.70
2018-06-14T01:10:18.688Z,15.76
2018-06-14T01:12:46.930Z,15.99
2018-06-14T01:15:15.160Z,15.88
2018-06-14T01:17:43.452Z,16.03
2018-06-14T01:20:11.738Z,15.90
2018-06-14T01:22:40.151Z,15.89
2018-06-14T01:25:08.420Z,15.95
2018-06-14T01:27:36.629Z,15.94
2018-06-14T01:30:05.352Z,15.62
2018-06-14T01:32:33.577Z,15.69
2018-06-14T01:35:01.856Z,15.88
2018-06-14T01:37:41.323Z,15.82
2018-06-14T01:40:09.606Z,15.61
2018-06-14T01:42:37.946Z,15.68
2018-06-14T01:45:06.464Z,15.74
2018-06-14T01:47:34.744Z,15.69
2018-06-14T01:50:03.088Z,15.74
2018-06-14T01:52:31.348Z,15.84
2018-06-14T01:54:59.658Z,15.80
2018-06-14T01:57:27.994Z,15.84
2018-06-14T01:59:56.309Z,15.83
2018-06-14T02:02:24.590Z,15.89
2018-06-14T02:04:52.904Z,15.92
2018-06-14T02:07:21.446Z,15.65
2018-06-14T02:09:49.748Z,15.62
2018-06-14T02:12:18.176Z,15.59
2018-06-14T02:14:46.608Z,15.66
2018-06-14T02:17:14.927Z,15.59
2018-06-14T02:19:43.180Z,15.60
2018-06-14T02:22:11.393Z,15.56
2018-06-14T02:24:39.680Z,15.71
2018-06-14T02:27:07.934Z,15.63
2018-06-14T02:29:36.204Z,15.51
2018-06-14T02:32:04.447Z,15.72
2018-06-14T02:34:32.713Z,15.71
2018-06-14T02:37:00.977Z,15.64
2018-06-14T02:39:29.250Z,15.34
2018-06-14T02:41:57.591Z,15.59
2018-06-14T02:44:26.665Z,15.32
2018-06-14T02:46:54.904Z,15.35
2018-06-14T02:49:23.155Z,15.40
2018-06-14T02:51:51.415Z,15.60
2018-06-14T02:54:19.660Z,15.49
2018-06-14T02:56:47.924Z,15.48
2018-06-14T02:59:16.197Z,15.42
2018-06-14T03:01:44.503Z,15.49
2018-06-14T03:04:12.756Z,15.54
2018-06-14T03:06:40.985Z,15.57
2018-06-14T03:09:10.022Z,15.45
2018-06-14T03:11:38.273Z,15.72
2018-06-14T03:14:06.699Z,15.78
2018-06-14T03:16:35.066Z,15.75
2018-06-14T03:19:03.296Z,15.67
2018-06-14T03:21:31.539Z,15.73
2018-06-14T03:23:59.837Z,15.54
2018-06-14T03:26:28.205Z,15.67
2018-06-14T03:28:57.153Z,15.67
2018-06-14T03:31:25.504Z,15.55
2018-06-14T03:33:53.861Z,15.49
2018-06-14T03:36:22.153Z,15.49
2018-06-14T03:38:50.384Z,15.66
2018-06-14T03:41:18.657Z,15.56
2018-06-14T03:43:46.909Z,15.65
2018-06-14T03:46:15.326Z,15.25
2018-06-14T03:48:43.628Z,15.14
2018-06-14T03:51:11.936Z,15.16
2018-06-14T03:53:40.328Z,15.08
2018-06-14T03:56:08.590Z,15.00
2018-06-14T03:58:36.897Z,15.28
2018-06-14T04:01:05.114Z,15.93
2018-06-14T04:03:33.403Z,15.46
2018-06-14T04:06:01.669Z,15.73
2018-06-14T04:08:29.916Z,15.82
2018-06-14T04:10:58.170Z,16.85
2018-06-14T04:13:26.441Z,17.37
2018-06-14T04:15:54.687Z,17.67
2018-06-14T04:18:22.954Z,18.18
2018-06-14T04:20:51.233Z,16.78
2018-06-14T04:23:19.481Z,16.53
2018-06-14T04:25:47.764Z,16.74
2018-06-14T04:28:16.168Z,16.40
2018-06-14T04:30:44.470Z,16.11
2018-06-14T04:33:13.063Z,15.77
2018-06-14T04:35:41.347Z,15.85
2018-06-14T04:38:09.644Z,16.08
2018-06-14T04:40:38.009Z,15.91
2018-06-14T04:43:06.387Z,16.14
2018-06-14T04:45:34.772Z,15.98
2018-06-14T04:48:03.008Z,15.73
2018-06-14T04:50:31.224Z,16.15
2018-06-14T04:52:59.506Z,15.85
2018-06-14T04:57:55.075Z,15.99
2018-06-14T05:00:23.360Z,15.96
2018-06-14T05:02:51.660Z,15.75
2018-06-14T05:05:20.508Z,15.92
2018-06-14T05:07:48.795Z,15.86
2018-06-14T05:10:17.582Z,16.14
2018-06-14T05:12:46.393Z,16.06
2018-06-14T05:15:14.689Z,16.08
2018-06-14T05:17:42.925Z,16.08
2018-06-14T05:20:11.199Z,16.11
2018-06-14T05:22:39.666Z,15.85
2018-06-14T05:25:07.960Z,15.96
2018-06-14T05:27:36.183Z,16.15
2018-06-14T05:30:05.294Z,16.22
2018-06-14T05:32:33.599Z,16.22
2018-06-14T05:35:01.923Z,16.34
2018-06-14T05:37:30.140Z,16.33
2018-06-14T05:39:59.131Z,16.35
2018-06-14T05:42:27.540Z,16.39
2018-06-14T05:44:56.160Z,16.26
2018-06-14T05:47:24.514Z,16.40
2018-06-14T05:49:52.774Z,16.51
2018-06-14T05:52:21.133Z,16.56
2018-06-14T05:54:49.401Z,16.62
2018-06-14T05:57:17.728Z,16.63
2018-06-14T05:59:45.947Z,16.36
2018-06-14T06:02:14.255Z,16.40
2018-06-14T06:04:42.600Z,16.56
2018-06-14T06:07:10.819Z,16.53
2018-06-14T06:09:39.084Z,16.56
2018-06-14T06:12:07.400Z,16.59
2018-06-14T06:14:35.707Z,16.69
2018-06-14T06:17:03.961Z,16.50
2018-06-14T06:19:32.258Z,16.63
2018-06-14T06:22:00.491Z,16.63
2018-06-14T06:24:28.733Z,16.42
2018-06-14T06:26:56.979Z,16.48
2018-06-14T06:29:25.247Z,16.55
2018-06-14T06:31:53.484Z,16.65
2018-06-14T06:34:21.778Z,16.90
2018-06-14T06:36:50.501Z,16.95
2018-06-14T06:39:18.772Z,17.02
2018-06-14T06:41:47.011Z,16.90
2018-06-14T06:44:15.245Z,17.06
2018-06-14T06:46:43.506Z,16.96
2018-06-14T06:49:11.748Z,17.01
2018-06-14T06:51:39.977Z,17.03
2018-06-14T06:54:08.233Z,17.01
2018-06-14T06:56:36.476Z,17.13
2018-06-14T06:59:04.837Z,17.18
2018-06-14T07:01:33.048Z,17.41
2018-06-14T07:04:01.317Z,17.48
2018-06-14T07:06:29.649Z,17.25
2018-06-14T07:08:57.923Z,17.38
2018-06-14T07:11:26.265Z,17.35
2018-06-14T07:13:54.553Z,17.59
2018-06-14T07:16:22.823Z,17.63
2018-06-14T07:18:51.069Z,17.56
2018-06-14T07:21:19.926Z,17.57
2018-06-14T07:23:48.197Z,17.87
2018-06-14T07:26:16.468Z,18.09
2018-06-14T07:28:44.733Z,17.96
2018-06-14T07:31:12.962Z,18.16
2018-06-14T07:33:41.183Z,18.20
2018-06-14T07:36:09.474Z,18.23
2018-06-14T07:38:37.704Z,18.30
2018-06-14T07:41:05.939Z,18.37
2018-06-14T07:43:34.175Z,18.43
2018-06-14T07:46:02.437Z,18.39
2018-06-14T07:48:30.702Z,18.46
2018-06-14T07:50:59.046Z,18.38
2018-06-14T07:53:27.275Z,18.68
2018-06-14T07:55:55.683Z,18.74
2018-06-14T07:58:23.978Z,18.99
2018-06-14T08:00:52.663Z,19.05
2018-06-14T08:03:20.907Z,18.85
2018-06-14T08:05:49.161Z,18.83
2018-06-14T08:08:17.404Z,18.73
2018-06-14T08:10:45.697Z,18.78
2018-06-14T08:13:14.049Z,18.67
2018-06-14T08:15:42.311Z,18.92
2018-06-14T08:18:10.559Z,19.04
2018-06-14T08:20:38.845Z,19.25
2018-06-14T08:23:07.069Z,19.09
2018-06-14T08:25:35.324Z,19.53
2018-06-14T08:28:03.552Z,19.57
2018-06-14T08:30:31.850Z,19.53
2018-06-14T08:33:00.115Z,19.34
2018-06-14T08:35:28.335Z,19.56
2018-06-14T08:37:56.620Z,19.72
2018-06-14T08:40:25.034Z,19.63
2018-06-14T08:42:53.379Z,19.44
2018-06-14T08:45:21.666Z,19.22
2018-06-14T08:47:50.289Z,19.26
2018-06-14T08:50:18.527Z,19.43
2018-06-14T08:52:46.836Z,19.68
2018-06-14T08:55:15.047Z,19.85
2018-06-14T08:57:43.266Z,19.65
2018-06-14T09:00:11.497Z,19.85
2018-06-14T09:02:39.731Z,19.76
2018-06-14T09:05:08.027Z,19.71
2018-06-14T09:07:36.330Z,19.77
2018-06-14T09:10:04.654Z,19.69
2018-06-14T09:12:32.907Z,19.89
2018-06-14T09:15:01.152Z,20.18
2018-06-14T09:17:29.379Z,20.25
2018-06-14T09:19:57.613Z,20.56
2018-06-14T09:22:25.839Z,20.81
2018-06-14T09:24:54.193Z,20.23
2018-06-14T09:27:22.459Z,19.90
2018-06-14T09:29:50.742Z,19.94
2018-06-14T09:32:18.907Z,19.69
2018-06-14T09:34:47.162Z,19.70
2018-06-14T09:37:15.564Z,19.85
2018-06-14T09:39:43.818Z,19.96
2018-06-14T09:42:12.002Z,20.33
2018-06-14T09:44:40.216Z,19.98
2018-06-14T09:47:08.420Z,20.20
2018-06-14T09:49:36.679Z,20.22
2018-06-14T09:52:04.889Z,20.22
2018-06-14T09:54:33.122Z,20.22
2018-06-14T09:57:01.333Z,20.07
2018-06-14T09:59:29.592Z,20.11
2018-06-14T10:01:57.815Z,20.00
2018-06-14T10:04:26.182Z,19.86
2018-06-14T10:06:54.404Z,20.31
2018-06-14T10:09:22.648Z,20.64
2018-06-14T10:11:50.896Z,20.64
2018-06-14T10:14:19.096Z,20.66
2018-06-14T10:16:47.315Z,20.85
2018-06-14T10:19:15.521Z,20.97
2018-06-14T10:21:44.441Z,20.95
2018-06-14T10:24:12.654Z,21.20
2018-06-14T10:26:41.078Z,21.18
2018-06-14T10:29:09.369Z,20.94
2018-06-14T10:31:37.595Z,20.73
2018-06-14T10:34:06.072Z,20.68
2018-06-14T10:36:34.321Z,21.06
2018-06-14T10:39:02.544Z,21.27
2018-06-14T10:41:30.867Z,21.07
2018-06-14T10:43:59.112Z,21.08
2018-06-14T10:46:27.320Z,21.10
2018-06-14T10:48:55.697Z,20.86
2018-06-14T10:51:23.915Z,21.19
2018-06-14T10:53:52.163Z,21.39
2018-06-14T10:56:20.408Z,21.86
2018-06-14T10:58:48.649Z,22.04
2018-06-14T11:01:16.948Z,21.72
2018-06-14T11:03:45.210Z,22.07
2018-06-14T11:06:13.465Z,21.79
2018-06-14T11:08:42.510Z,22.11
2018-06-14T11:11:10.812Z,22.16
2018-06-14T11:13:39.003Z,21.86
2018-06-14T11:16:07.240Z,22.44
2018-06-14T11:18:36.286Z,22.67
2018-06-14T11:21:04.659Z,22.39
2018-06-14T11:23:32.874Z,22.02
2018-06-14T11:26:01.116Z,21.91
2018-06-14T11:28:29.340Z,21.58
2018-06-14T11:30:57.600Z,21.84
2018-06-14T11:33:25.848Z,22.39
2018-06-14T11:35:54.180Z,22.67
2018-06-14T11:38:22.418Z,23.01
2018-06-14T11:40:50.713Z,22.89
2018-06-14T11:43:18.947Z,22.75
2018-06-14T11:45:47.164Z,22.63
2018-06-14T11:48:15.452Z,22.79
2018-06-14T11:50:44.425Z,22.95
2018-06-14T11:53:12.736Z,22.63
2018-06-14T11:55:40.968Z,22.69
2018-06-14T11:58:09.220Z,22.71
2018-06-14T12:00:37.481Z,22.56
2018-06-14T12:03:05.849Z,22.75
2018-06-14T12:05:34.147Z,22.52
2018-06-14T12:08:02.384Z,22.48
2018-06-14T12:10:30.613Z,22.51
2018-06-14T12:12:58.875Z,22.48
2018-06-14T12:15:27.097Z,22.74
2018-06-14T12:17:55.356Z,22.48
2018-06-14T12:20:23.582Z,22.49
2018-06-14T12:22:51.806Z,22.50
2018-06-14T12:25:20.136Z,22.72
2018-06-14T12:27:48.377Z,22.93
2018-06-14T12:30:16.597Z,23.18
2018-06-14T12:32:44.840Z,23.37
2018-06-14T12:35:13.091Z,23.46
2018-06-14T12:37:41.372Z,23.56
2018-06-14T12:40:09.576Z,23.06
2018-06-14T12:42:37.828Z,22.61
2018-06-14T12:45:06.052Z,22.62
2018-06-14T12:47:34.372Z,22.65
2018-06-14T12:50:02.585Z,22.64
2018-06-14T12:52:30.837Z,22.77
2018-06-14T12:54:59.072Z,23.09
2018-06-14T12:57:27.334Z,23.53
2018-06-14T12:59:55.602Z,23.87
2018-06-14T13:02:23.830Z,23.40
2018-06-14T13:04:52.050Z,23.22
2018-06-14T13:07:20.329Z,23.10
2018-06-14T13:09:48.562Z,23.13
2018-06-14T13:12:16.841Z,23.30
2018-06-14T13:14:45.080Z,23.28
2018-06-14T13:17:13.329Z,23.18
2018-06-14T13:19:41.629Z,22.93
2018-06-14T13:22:09.910Z,23.00
2018-06-14T13:24:40.840Z,23.24
2018-06-14T13:27:09.374Z,23.22
2018-06-14T13:29:37.592Z,23.39
2018-06-14T13:32:05.825Z,23.83
2018-06-14T13:34:34.495Z,24.09
2018-06-14T13:37:02.892Z,23.81
2018-06-14T13:39:31.232Z,23.56
2018-06-14T13:41:59.502Z,23.67
2018-06-14T13:44:27.742Z,23.81
2018-06-14T13:46:56.101Z,23.90
2018-06-14T13:49:24.448Z,24.59
2018-06-14T13:51:52.746Z,24.70
2018-06-14T13:54:21.003Z,24.56
2018-06-14T13:56:49.249Z,23.90
2018-06-14T13:59:17.511Z,23.87
2018-06-14T14:01:45.705Z,23.89
2018-06-14T14:04:13.976Z,24.26
2018-06-14T14:06:42.212Z,24.74
2018-06-14T14:09:11.825Z,24.65
2018-06-14T14:11:40.289Z,24.97
2018-06-14T14:14:08.564Z,24.66
2018-06-14T14:16:36.930Z,24.22
2018-06-14T14:19:05.207Z,23.95
2018-06-14T14:21:33.441Z,23.86
2018-06-14T14:24:01.725Z,24.08
2018-06-14T14:26:29.972Z,24.71
2018-06-14T14:28:58.234Z,25.12
2018-06-14T14:31:26.533Z,25.15
2018-06-14T14:33:54.856Z,24.89
2018-06-14T14:36:23.082Z,24.29
2018-06-14T14:38:52.117Z,24.44
2018-06-14T14:41:20.488Z,24.28
2018-06-14T14:43:48.827Z,24.48
2018-06-14T14:46:17.045Z,24.56
2018-06-14T14:48:45.269Z,24.81
2018-06-14T14:51:13.641Z,24.40
2018-06-14T14:53:41.911Z,24.60
2018-06-14T14:56:10.173Z,24.74
2018-06-14T14:58:38.516Z,24.54
2018-06-14T15:01:06.742Z,24.32
2018-06-14T15:03:34.971Z,24.39
2018-06-14T15:06:03.237Z,24.41
2018-06-14T15:08:31.610Z,24.38
2018-06-14T15:10:59.848Z,23.96
2018-06-14T15:13:28.204Z,24.39
2018-06-14T15:15:56.477Z,24.34
2018-06-14T15:18:24.782Z,24.24
2018-06-14T15:20:53.053Z,24.27
2018-06-14T15:23:21.378Z,24.51
2018-06-14T15:25:49.721Z,24.63
2018-06-14T15:28:18.168Z,24.72
2018-06-14T15:30:46.391Z,24.85
2018-06-14T15:33:14.685Z,25.10
2018-06-14T15:35:42.943Z,24.83
2018-06-14T15:38:11.205Z,25.05
2018-06-14T15:40:39.419Z,25.27
2018-06-14T15:43:07.694Z,25.52
2018-06-14T15:45:35.944Z,25.13
2018-06-14T15:48:04.304Z,25.30
2018-06-14T15:50:32.556Z,25.48
2018-06-14T15:53:00.837Z,24.94
2018-06-14T15:56:12.631Z,24.63
2018-06-14T15:58:41.056Z,25.00
2018-06-14T16:01:09.846Z,24.88
2018-06-14T16:03:38.195Z,25.31
2018-06-14T16:06:06.452Z,24.90
2018-06-14T16:08:34.776Z,24.56
2018-06-14T16:11:03.028Z,24.50
2018-06-14T16:13:31.374Z,24.53
2018-06-14T16:15:59.655Z,24.53
2018-06-14T16:18:27.931Z,24.47
2018-06-14T16:20:56.321Z,24.46
2018-06-14T16:23:24.613Z,24.59
2018-06-14T16:25:52.825Z,24.70
2018-06-14T16:28:21.309Z,24.49
2018-06-14T16:30:49.570Z,24.66
2018-06-14T16:33:17.840Z,24.55
2018-06-14T16:35:46.153Z,24.56
2018-06-14T16:38:14.400Z,24.36
2018-06-14T16:40:42.668Z,24.45
2018-06-14T16:43:10.976Z,24.28
2018-06-14T16:45:39.236Z,24.03
2018-06-14T16:48:07.500Z,24.46
2018-06-14T16:50:35.878Z,24.41
2018-06-14T16:53:04.196Z,24.07
2018-06-14T16:55:32.486Z,24.05
2018-06-14T16:58:00.874Z,24.15
2018-06-14T17:00:29.138Z,24.21
2018-06-14T17:02:57.375Z,24.12
2018-06-14T17:05:25.675Z,24.05
2018-06-14T17:07:53.977Z,24.17
2018-06-14T17:10:22.222Z,24.04
2018-06-14T17:12:50.465Z,24.00
2018-06-14T17:15:18.708Z,23.98
2018-06-14T17:17:46.941Z,23.94
2018-06-14T17:20:15.177Z,23.91
2018-06-14T17:22:43.448Z,24.08
2018-06-14T17:25:11.668Z,23.88
2018-06-14T17:27:39.935Z,23.95
2018-06-14T17:30:08.585Z,23.69
2018-06-14T17:32:36.778Z,23.82
2018-06-14T17:35:05.248Z,23.35
2018-06-14T17:37:33.596Z,23.12
2018-06-14T17:40:01.883Z,23.02
2018-06-14T17:42:30.315Z,22.97
2018-06-14T17:44:58.693Z,22.63
2018-06-14T17:47:27.001Z,22.83
2018-06-14T17:49:55.295Z,22.81
2018-06-14T17:52:23.608Z,22.00
2018-06-14T17:54:52.694Z,22.12
2018-06-14T17:57:20.997Z,21.59
2018-06-14T17:59:49.278Z,20.89
2018-06-14T18:02:17.566Z,21.09
2018-06-14T18:04:45.909Z,20.95
2018-06-14T18:07:14.140Z,20.92
2018-06-14T18:09:42.440Z,21.02
2018-06-14T18:12:10.654Z,20.65
2018-06-14T18:14:38.956Z,20.60
2018-06-14T18:17:07.231Z,20.40
2018-06-14T18:19:35.611Z,20.49
2018-06-14T18:22:03.937Z,20.56
2018-06-14T18:24:32.271Z,20.62
2018-06-14T18:27:00.582Z,20.51
2018-06-14T18:29:28.937Z,20.29
2018-06-14T18:31:57.208Z,20.32
2018-06-14T18:34:26.263Z,20.44
2018-06-14T18:36:54.635Z,20.20
2018-06-14T18:39:23.253Z,20.30
2018-06-14T18:41:51.531Z,20.13
2018-06-14T18:44:20.442Z,19.98
2018-06-14T18:46:48.717Z,20.06
2018-06-14T18:49:16.969Z,20.38
2018-06-14T18:51:45.237Z,20.17
2018-06-14T18:54:13.501Z,20.07
2018-06-14T18:56:41.862Z,19.97
2018-06-14T18:59:10.156Z,19.92
2018-06-14T19:01:38.483Z,20.15
2018-06-14T19:04:06.756Z,19.83
2018-06-14T19:06:35.048Z,19.99
2018-06-14T19:09:03.333Z,19.85
2018-06-14T19:11:31.564Z,19.96
2018-06-14T19:14:00.300Z,19.94
2018-06-14T19:16:28.581Z,19.88
2018-06-14T19:18:57.605Z,20.09
2018-06-14T19:21:25.887Z,19.79
2018-06-14T19:23:54.123Z,20.04
2018-06-14T19:26:22.581Z,19.64
2018-06-14T19:28:50.797Z,19.83
2018-06-14T19:31:19.057Z,19.64
2018-06-14T19:33:47.279Z,19.79
2018-06-14T19:36:15.646Z,20.05
2018-06-14T19:38:43.880Z,19.98
2018-06-14T19:41:12.211Z,19.86
2018-06-14T19:43:40.482Z,19.97
2018-06-14T19:46:08.775Z,19.92
2018-06-14T19:48:37.014Z,19.94
2018-06-14T19:51:05.280Z,19.85
2018-06-14T19:53:34.151Z,19.92
2018-06-14T19:56:02.502Z,20.02
2018-06-14T19:58:30.816Z,19.89
2018-06-14T20:00:59.128Z,20.00
2018-06-14T20:03:27.401Z,19.90
2018-06-14T20:05:55.671Z,19.44
2018-06-14T20:08:24.115Z,19.57
2018-06-14T20:10:52.479Z,19.80
2018-06-14T20:13:20.855Z,19.64
2018-06-14T20:15:49.291Z,19.48
2018-06-14T20:18:17.553Z,19.54
2018-06-14T20:20:45.868Z,19.38
2018-06-14T20:23:14.457Z,19.44
2018-06-14T20:25:42.809Z,19.51
2018-06-14T20:28:11.098Z,19.13
2018-06-14T20:30:39.388Z,19.03
2018-06-14T20:33:07.876Z,19.34
2018-06-14T20:35:36.208Z,19.36
2018-06-14T20:38:04.614Z,19.27
2018-06-14T20:40:32.896Z,19.36
2018-06-14T20:43:01.185Z,19.33
2018-06-14T20:45:29.462Z,19.30
2018-06-14T20:47:57.769Z,19.21
2018-06-14T20:50:26.108Z,19.38
2018-06-14T20:52:54.815Z,19.35
2018-06-14T20:55:23.208Z,19.21
2018-06-14T20:57:51.444Z,19.13
2018-06-14T21:00:19.703Z,19.11
2018-06-14T21:02:48.009Z,19.03
2018-06-14T21:05:16.285Z,19.03
2018-06-14T21:07:44.560Z,19.18
2018-06-14T21:10:12.827Z,19.25
2018-06-14T21:12:41.079Z,19.12
2018-06-14T21:15:09.340Z,18.84
2018-06-14T21:17:37.592Z,19.18
2018-06-14T21:20:05.873Z,19.03
2018-06-14T21:22:34.081Z,19.07
2018-06-14T21:25:02.354Z,18.79
2018-06-14T21:27:30.621Z,18.89
2018-06-14T21:29:58.873Z,18.96
2018-06-14T21:32:27.212Z,18.98
2018-06-14T21:34:57.277Z,19.10
2018-06-14T21:37:25.544Z,18.99
2018-06-14T21:39:53.830Z,19.19
2018-06-14T21:42:22.095Z,19.08
2018-06-14T21:44:50.370Z,19.14
2018-06-14T21:47:18.660Z,19.12
2018-06-14T21:49:46.957Z,18.86
2018-06-14T21:52:15.857Z,19.02
2018-06-14T21:54:44.106Z,19.09
2018-06-14T21:57:12.379Z,19.23
2018-06-14T21:59:40.707Z,18.95
2018-06-14T22:02:08.954Z,19.05
2018-06-14T22:04:37.254Z,18.99
2018-06-14T22:07:05.482Z,18.98
2018-06-14T22:09:33.765Z,18.88
2018-06-14T22:12:02.030Z,18.87
2018-06-14T22:14:30.323Z,18.81
2018-06-14T22:16:58.595Z,18.48
2018-06-14T22:19:26.872Z,18.84
2018-06-14T22:21:55.139Z,18.72
2018-06-14T22:24:23.444Z,18.76
2018-06-14T22:26:51.862Z,18.74
2018-06-14T22:29:21.246Z,18.83
2018-06-14T22:31:52.003Z,18.66
2018-06-14T22:34:31.756Z,18.45
2018-06-14T22:37:00.010Z,18.50
2018-06-14T22:39:28.289Z,18.53
2018-06-14T22:41:56.573Z,18.53
2018-06-14T22:44:24.820Z,18.56
2018-06-14T22:46:53.045Z,18.20
2018-06-14T22:49:21.255Z,18.55
2018-06-14T22:53:10.912Z,18.63
2018-06-14T22:55:39.264Z,18.37
2018-06-14T22:58:07.590Z,18.10
2018-06-14T23:01:48.249Z,18.37
2018-06-14T23:04:18.071Z,18.18
2018-06-14T23:06:46.828Z,18.27
2018-06-14T23:10:26.905Z,18.11
2018-06-14T23:12:55.230Z,18.36
2018-06-14T23:15:23.515Z,18.03
2018-06-14T23:17:52.956Z,18.31
2018-06-14T23:20:22.307Z,18.46
2018-06-14T23:22:51.795Z,18.07
2018-06-14T23:25:20.799Z,18.18
2018-06-14T23:27:49.068Z,18.31
2018-06-14T23:30:17.631Z,18.35
2018-06-14T23:32:46.031Z,18.38
2018-06-14T23:35:14.381Z,18.28
2018-06-14T23:37:42.836Z,18.42
2018-06-14T23:40:11.104Z,18.49
2018-06-14T23:42:39.351Z,18.33
2018-06-14T23:45:07.644Z,18.11
2018-06-14T23:47:35.879Z,18.27
2018-06-14T23:50:04.292Z,18.19
2018-06-14T23:52:32.496Z,18.29
2018-06-14T23:55:00.847Z,18.25
2018-06-14T23:57:29.151Z,17.98
2018-06-14T23:59:57.393Z,18.10
